sensor_id;sensor_type;location;lat;lon;timestamp;pressure;altitude;pressure_sealevel;temperature;humidity
63009;BME280;49099;28.428;-16.488;2023-07-31T00:00:20;98994.84;;;24.58;61.90
63009;BME280;49099;28.428;-16.488;2023-07-31T00:02:47;99002.44;;;24.53;62.28
63009;BME280;49099;28.428;-16.488;2023-07-31T00:05:17;99004.38;;;24.52;62.22
63009;BME280;49099;28.428;-16.488;2023-07-31T00:07:44;99002.09;;;24.54;62.42
63009;BME280;49099;28.428;-16.488;2023-07-31T00:10:11;98999.84;;;24.56;62.06
63009;BME280;49099;28.428;-16.488;2023-07-31T00:12:40;98996.69;;;24.54;62.21
63009;BME280;49099;28.428;-16.488;2023-07-31T00:15:08;98995.53;;;24.55;62.24
63009;BME280;49099;28.428;-16.488;2023-07-31T00:17:36;98984.06;;;24.46;62.41
63009;BME280;49099;28.428;-16.488;2023-07-31T00:20:04;98984.72;;;24.43;62.64
63009;BME280;49099;28.428;-16.488;2023-07-31T00:22:31;98976.16;;;24.41;63.02
63009;BME280;49099;28.428;-16.488;2023-07-31T00:24:58;98976.78;;;24.50;63.50
63009;BME280;49099;28.428;-16.488;2023-07-31T00:27:26;98976.13;;;24.53;63.86
63009;BME280;49099;28.428;-16.488;2023-07-31T00:29:53;98969.22;;;24.56;64.05
63009;BME280;49099;28.428;-16.488;2023-07-31T00:32:20;98972.34;;;24.58;63.97
63009;BME280;49099;28.428;-16.488;2023-07-31T00:34:48;98973.16;;;24.58;63.60
63009;BME280;49099;28.428;-16.488;2023-07-31T00:37:15;98973.63;;;24.60;63.74
63009;BME280;49099;28.428;-16.488;2023-07-31T00:39:42;98972.81;;;24.60;63.42
63009;BME280;49099;28.428;-16.488;2023-07-31T00:42:09;98975.41;;;24.56;64.13
63009;BME280;49099;28.428;-16.488;2023-07-31T00:44:36;98973.88;;;24.43;64.15
63009;BME280;49099;28.428;-16.488;2023-07-31T00:47:03;98964.63;;;24.32;65.15
63009;BME280;49099;28.428;-16.488;2023-07-31T00:49:31;98967.81;;;24.22;65.42
63009;BME280;49099;28.428;-16.488;2023-07-31T00:51:59;98960.72;;;24.17;65.24
63009;BME280;49099;28.428;-16.488;2023-07-31T00:54:26;98966.13;;;24.17;65.51
63009;BME280;49099;28.428;-16.488;2023-07-31T00:56:54;98961.41;;;24.14;65.24
63009;BME280;49099;28.428;-16.488;2023-07-31T00:59:22;98958.13;;;24.08;65.32
63009;BME280;49099;28.428;-16.488;2023-07-31T01:01:49;98955.41;;;24.08;65.40
63009;BME280;49099;28.428;-16.488;2023-07-31T01:04:17;98951.91;;;24.08;65.46
63009;BME280;49099;28.428;-16.488;2023-07-31T01:06:51;98954.50;;;24.04;65.57
63009;BME280;49099;28.428;-16.488;2023-07-31T01:09:29;98950.00;;;23.96;65.88
63009;BME280;49099;28.428;-16.488;2023-07-31T01:15:41;98940.88;;;24.01;65.62
63009;BME280;49099;28.428;-16.488;2023-07-31T01:18:09;98937.94;;;24.06;65.29
63009;BME280;49099;28.428;-16.488;2023-07-31T01:20:37;98932.03;;;24.04;65.34
63009;BME280;49099;28.428;-16.488;2023-07-31T01:23:20;98926.88;;;23.99;65.61
63009;BME280;49099;28.428;-16.488;2023-07-31T01:26:00;98922.25;;;23.99;65.59
63009;BME280;49099;28.428;-16.488;2023-07-31T01:31:14;98922.03;;;23.92;65.87
63009;BME280;49099;28.428;-16.488;2023-07-31T01:33:43;98908.03;;;23.90;66.04
63009;BME280;49099;28.428;-16.488;2023-07-31T01:36:11;98909.63;;;23.91;65.93
63009;BME280;49099;28.428;-16.488;2023-07-31T01:38:40;98908.69;;;23.99;65.74
63009;BME280;49099;28.428;-16.488;2023-07-31T01:41:07;98916.13;;;24.02;65.69
63009;BME280;49099;28.428;-16.488;2023-07-31T01:43:38;98910.03;;;24.05;65.65
63009;BME280;49099;28.428;-16.488;2023-07-31T01:46:06;98901.44;;;24.03;65.32
63009;BME280;49099;28.428;-16.488;2023-07-31T01:48:34;98903.72;;;24.01;64.79
63009;BME280;49099;28.428;-16.488;2023-07-31T01:51:03;98890.41;;;23.96;65.04
63009;BME280;49099;28.428;-16.488;2023-07-31T01:53:31;98887.94;;;23.91;64.67
63009;BME280;49099;28.428;-16.488;2023-07-31T01:55:59;98890.88;;;23.86;64.94
63009;BME280;49099;28.428;-16.488;2023-07-31T01:58:26;98889.41;;;23.88;64.60
63009;BME280;49099;28.428;-16.488;2023-07-31T02:00:53;98870.78;;;23.87;64.76
63009;BME280;49099;28.428;-16.488;2023-07-31T02:03:20;98873.06;;;23.85;64.21
63009;BME280;49099;28.428;-16.488;2023-07-31T02:05:49;98870.56;;;23.92;64.02
63009;BME280;49099;28.428;-16.488;2023-07-31T02:08:16;98872.81;;;23.90;64.11
63009;BME280;49099;28.428;-16.488;2023-07-31T02:10:43;98876.19;;;23.87;64.11
63009;BME280;49099;28.428;-16.488;2023-07-31T02:13:11;98870.56;;;23.92;63.97
63009;BME280;49099;28.428;-16.488;2023-07-31T02:15:38;98866.28;;;23.91;63.80
63009;BME280;49099;28.428;-16.488;2023-07-31T02:18:05;98860.84;;;23.91;63.82
63009;BME280;49099;28.428;-16.488;2023-07-31T02:20:35;98864.69;;;23.90;64.21
63009;BME280;49099;28.428;-16.488;2023-07-31T02:23:02;98866.28;;;23.91;64.11
63009;BME280;49099;28.428;-16.488;2023-07-31T02:25:29;98874.84;;;23.93;64.32
63009;BME280;49099;28.428;-16.488;2023-07-31T02:27:56;98871.44;;;23.96;64.23
63009;BME280;49099;28.428;-16.488;2023-07-31T02:30:24;98870.06;;;24.02;64.01
63009;BME280;49099;28.428;-16.488;2023-07-31T02:32:51;98870.06;;;24.02;64.09
63009;BME280;49099;28.428;-16.488;2023-07-31T02:35:18;98875.94;;;24.04;64.41
63009;BME280;49099;28.428;-16.488;2023-07-31T02:37:46;98871.22;;;24.01;64.77
63009;BME280;49099;28.428;-16.488;2023-07-31T02:40:13;98869.63;;;24.00;64.37
63009;BME280;49099;28.428;-16.488;2023-07-31T02:42:40;98869.88;;;23.95;64.76
63009;BME280;49099;28.428;-16.488;2023-07-31T02:45:07;98869.00;;;23.91;64.54
63009;BME280;49099;28.428;-16.488;2023-07-31T02:47:35;98869.63;;;24.00;64.59
63009;BME280;49099;28.428;-16.488;2023-07-31T02:50:05;98874.81;;;24.05;64.67
63009;BME280;49099;28.428;-16.488;2023-07-31T02:52:32;98873.22;;;24.04;64.41
63009;BME280;49099;28.428;-16.488;2023-07-31T02:54:59;98871.22;;;24.01;64.54
63009;BME280;49099;28.428;-16.488;2023-07-31T02:57:27;98872.00;;;24.02;64.61
63009;BME280;49099;28.428;-16.488;2023-07-31T02:59:54;98872.69;;;23.99;64.37
63009;BME280;49099;28.428;-16.488;2023-07-31T03:02:21;98874.94;;;23.97;64.56
63009;BME280;49099;28.428;-16.488;2023-07-31T03:04:48;98874.25;;;24.00;64.61
63009;BME280;49099;28.428;-16.488;2023-07-31T03:07:15;98876.19;;;23.99;64.67
63009;BME280;49099;28.428;-16.488;2023-07-31T03:09:43;98876.84;;;23.96;64.61
63009;BME280;49099;28.428;-16.488;2023-07-31T03:12:10;98869.50;;;23.97;64.49
63009;BME280;49099;28.428;-16.488;2023-07-31T03:14:37;98865.56;;;23.94;64.29
63009;BME280;49099;28.428;-16.488;2023-07-31T03:17:04;98875.28;;;23.95;64.24
63009;BME280;49099;28.428;-16.488;2023-07-31T03:19:32;98873.72;;;23.94;63.86
63009;BME280;49099;28.428;-16.488;2023-07-31T03:21:59;98880.16;;;23.89;64.03
63009;BME280;49099;28.428;-16.488;2023-07-31T03:24:28;98864.03;;;23.81;64.56
63009;BME280;49099;28.428;-16.488;2023-07-31T03:26:56;98871.97;;;23.74;64.36
63009;BME280;49099;28.428;-16.488;2023-07-31T03:29:23;98872.16;;;23.81;64.02
63009;BME280;49099;28.428;-16.488;2023-07-31T03:31:50;98873.75;;;23.82;64.46
63009;BME280;49099;28.428;-16.488;2023-07-31T03:34:17;98872.97;;;23.81;64.41
63009;BME280;49099;28.428;-16.488;2023-07-31T03:36:45;98876.91;;;23.84;64.33
63009;BME280;49099;28.428;-16.488;2023-07-31T03:39:12;98876.91;;;23.84;64.37
63009;BME280;49099;28.428;-16.488;2023-07-31T03:41:39;98879.97;;;23.82;64.13
63009;BME280;49099;28.428;-16.488;2023-07-31T03:44:06;98879.25;;;23.85;64.48
63009;BME280;49099;28.428;-16.488;2023-07-31T03:46:33;98885.03;;;23.84;64.26
63009;BME280;49099;28.428;-16.488;2023-07-31T03:49:01;98881.09;;;23.81;64.67
63009;BME280;49099;28.428;-16.488;2023-07-31T03:51:28;98878.69;;;23.80;64.82
63009;BME280;49099;28.428;-16.488;2023-07-31T03:53:56;98879.97;;;23.82;64.84
63009;BME280;49099;28.428;-16.488;2023-07-31T03:56:23;98877.34;;;23.86;64.78
63009;BME280;49099;28.428;-16.488;2023-07-31T03:58:50;98873.50;;;23.87;64.84
63009;BME280;49099;28.428;-16.488;2023-07-31T04:01:17;98871.91;;;23.86;64.81
63009;BME280;49099;28.428;-16.488;2023-07-31T04:03:46;98873.06;;;23.85;64.92
63009;BME280;49099;28.428;-16.488;2023-07-31T04:06:13;98867.63;;;23.85;64.87
63009;BME280;49099;28.428;-16.488;2023-07-31T04:08:44;98877.13;;;23.91;64.66
63009;BME280;49099;28.428;-16.488;2023-07-31T04:11:12;98872.81;;;23.90;64.36
63009;BME280;49099;28.428;-16.488;2023-07-31T04:13:39;98878.69;;;23.92;63.93
63009;BME280;49099;28.428;-16.488;2023-07-31T04:16:06;98873.63;;;23.90;64.25
63009;BME280;49099;28.428;-16.488;2023-07-31T04:18:33;98882.31;;;23.84;64.09
63009;BME280;49099;28.428;-16.488;2023-07-31T04:21:00;98878.47;;;23.85;64.07
63009;BME280;49099;28.428;-16.488;2023-07-31T04:23:30;98880.28;;;23.81;64.02
63009;BME280;49099;28.428;-16.488;2023-07-31T04:25:57;98890.00;;;23.82;63.93
63009;BME280;49099;28.428;-16.488;2023-07-31T04:28:24;98888.88;;;23.83;63.80
63009;BME280;49099;28.428;-16.488;2023-07-31T04:30:53;98884.25;;;23.83;63.92
63009;BME280;49099;28.428;-16.488;2023-07-31T04:33:20;98889.31;;;23.85;63.47
63009;BME280;49099;28.428;-16.488;2023-07-31T04:35:53;98894.63;;;23.81;63.83
63009;BME280;49099;28.428;-16.488;2023-07-31T04:38:21;98894.50;;;23.78;63.65
63009;BME280;49099;28.428;-16.488;2023-07-31T04:40:49;98899.94;;;23.78;63.73
63009;BME280;49099;28.428;-16.488;2023-07-31T04:43:16;98901.84;;;23.77;63.92
63009;BME280;49099;28.428;-16.488;2023-07-31T04:45:46;98904.66;;;23.81;63.93
63009;BME280;49099;28.428;-16.488;2023-07-31T04:48:17;98902.63;;;23.78;64.07
63009;BME280;49099;28.428;-16.488;2023-07-31T04:50:44;98899.16;;;23.77;63.81
63009;BME280;49099;28.428;-16.488;2023-07-31T04:53:11;98899.94;;;23.78;63.83
63009;BME280;49099;28.428;-16.488;2023-07-31T04:55:38;98907.84;;;23.83;64.07
63009;BME280;49099;28.428;-16.488;2023-07-31T04:58:05;98901.63;;;23.82;63.92
63009;BME280;49099;28.428;-16.488;2023-07-31T05:00:33;98901.50;;;23.79;63.70
63009;BME280;49099;28.428;-16.488;2023-07-31T05:03:00;98904.00;;;23.72;63.99
63009;BME280;49099;28.428;-16.488;2023-07-31T05:05:27;98903.56;;;23.70;64.03
63009;BME280;49099;28.428;-16.488;2023-07-31T05:07:54;98903.34;;;23.75;63.75
63009;BME280;49099;28.428;-16.488;2023-07-31T05:10:22;98899.72;;;23.71;63.70
63009;BME280;49099;28.428;-16.488;2023-07-31T05:12:49;98899.03;;;23.74;63.78
63009;BME280;49099;28.428;-16.488;2023-07-31T05:15:16;98902.84;;;23.73;63.79
63009;BME280;49099;28.428;-16.488;2023-07-31T05:17:43;98901.19;;;23.68;64.05
63009;BME280;49099;28.428;-16.488;2023-07-31T05:20:10;98906.69;;;23.72;64.04
63009;BME280;49099;28.428;-16.488;2023-07-31T05:22:38;98901.28;;;23.72;64.32
63009;BME280;49099;28.428;-16.488;2023-07-31T05:25:05;98906.47;;;23.65;64.51
63009;BME280;49099;28.428;-16.488;2023-07-31T05:27:32;98906.47;;;23.65;64.46
63009;BME280;49099;28.428;-16.488;2023-07-31T05:30:00;98907.25;;;23.65;64.78
63009;BME280;49099;28.428;-16.488;2023-07-31T05:32:27;98912.38;;;23.67;64.61
63009;BME280;49099;28.428;-16.488;2023-07-31T05:34:54;98909.31;;;23.68;64.54
63009;BME280;49099;28.428;-16.488;2023-07-31T05:37:22;98913.47;;;23.66;64.29
63009;BME280;49099;28.428;-16.488;2023-07-31T05:39:49;98914.03;;;23.59;64.68
63009;BME280;49099;28.428;-16.488;2023-07-31T05:42:16;98924.63;;;23.52;64.70
63009;BME280;49099;28.428;-16.488;2023-07-31T05:44:43;98928.56;;;23.54;64.58
63009;BME280;49099;28.428;-16.488;2023-07-31T05:47:10;98927.78;;;23.54;64.45
63009;BME280;49099;28.428;-16.488;2023-07-31T05:49:38;98923.16;;;23.54;64.69
63009;BME280;49099;28.428;-16.488;2023-07-31T05:52:05;98931.28;;;23.54;64.70
63009;BME280;49099;28.428;-16.488;2023-07-31T05:54:32;98935.38;;;23.60;64.64
63009;BME280;49099;28.428;-16.488;2023-07-31T05:57:00;98936.25;;;23.52;64.56
63009;BME280;49099;28.428;-16.488;2023-07-31T05:59:27;98937.31;;;23.60;64.45
63009;BME280;49099;28.428;-16.488;2023-07-31T06:01:54;98933.91;;;23.63;64.22
63009;BME280;49099;28.428;-16.488;2023-07-31T06:04:22;98939.75;;;23.65;64.25
63009;BME280;49099;28.428;-16.488;2023-07-31T06:06:52;98941.47;;;23.70;63.81
63009;BME280;49099;28.428;-16.488;2023-07-31T06:09:19;98933.69;;;23.68;63.78
63009;BME280;49099;28.428;-16.488;2023-07-31T06:11:47;98942.94;;;23.67;63.58
63009;BME280;49099;28.428;-16.488;2023-07-31T06:14:14;98942.94;;;23.67;63.55
63009;BME280;49099;28.428;-16.488;2023-07-31T06:16:41;98952.31;;;23.70;63.43
63009;BME280;49099;28.428;-16.488;2023-07-31T06:19:08;98947.22;;;23.68;63.57
63009;BME280;49099;28.428;-16.488;2023-07-31T06:21:36;98952.66;;;23.68;63.74
63009;BME280;49099;28.428;-16.488;2023-07-31T06:24:06;98951.38;;;23.66;63.60
63009;BME280;49099;28.428;-16.488;2023-07-31T06:26:33;98948.34;;;23.67;63.96
63009;BME280;49099;28.428;-16.488;2023-07-31T06:29:00;98953.00;;;23.67;64.70
63009;BME280;49099;28.428;-16.488;2023-07-31T06:31:27;98949.94;;;23.68;64.79
63009;BME280;49099;28.428;-16.488;2023-07-31T06:33:55;98947.56;;;23.67;64.82
63009;BME280;49099;28.428;-16.488;2023-07-31T06:36:22;98948.00;;;23.69;65.08
63009;BME280;49099;28.428;-16.488;2023-07-31T06:38:49;98948.47;;;23.71;64.80
63009;BME280;49099;28.428;-16.488;2023-07-31T06:41:16;98947.81;;;23.74;64.28
63009;BME280;49099;28.428;-16.488;2023-07-31T06:43:43;98946.97;;;23.73;64.15
63009;BME280;49099;28.428;-16.488;2023-07-31T06:46:10;98961.78;;;23.76;64.07
63009;BME280;49099;28.428;-16.488;2023-07-31T06:48:38;98961.44;;;23.77;64.04
63009;BME280;49099;28.428;-16.488;2023-07-31T06:51:05;98975.75;;;23.78;64.08
63009;BME280;49099;28.428;-16.488;2023-07-31T06:53:32;98971.94;;;23.79;63.86
63009;BME280;49099;28.428;-16.488;2023-07-31T06:55:59;98972.84;;;23.83;63.64
63009;BME280;49099;28.428;-16.488;2023-07-31T06:58:26;98975.91;;;23.81;63.80
63009;BME280;49099;28.428;-16.488;2023-07-31T07:00:53;98976.69;;;23.82;63.76
63009;BME280;49099;28.428;-16.488;2023-07-31T07:03:21;98988.63;;;23.81;63.76
63009;BME280;49099;28.428;-16.488;2023-07-31T07:05:48;98981.41;;;23.85;63.64
63009;BME280;49099;28.428;-16.488;2023-07-31T07:08:15;98982.19;;;23.85;63.69
63009;BME280;49099;28.428;-16.488;2023-07-31T07:10:43;98989.97;;;23.87;63.86
63009;BME280;49099;28.428;-16.488;2023-07-31T07:13:10;98990.91;;;23.91;63.46
63009;BME280;49099;28.428;-16.488;2023-07-31T07:15:39;98994.03;;;23.81;63.89
63009;BME280;49099;28.428;-16.488;2023-07-31T07:18:06;98995.31;;;23.83;63.58
63009;BME280;49099;28.428;-16.488;2023-07-31T07:20:34;99003.66;;;23.90;63.61
63009;BME280;49099;28.428;-16.488;2023-07-31T07:23:01;99011.00;;;23.90;63.30
63009;BME280;49099;28.428;-16.488;2023-07-31T07:25:28;99014.16;;;23.92;63.30
63009;BME280;49099;28.428;-16.488;2023-07-31T07:27:55;99009.88;;;23.91;62.95
63009;BME280;49099;28.428;-16.488;2023-07-31T07:30:23;99012.00;;;23.98;62.88
63009;BME280;49099;28.428;-16.488;2023-07-31T07:32:51;99024.06;;;24.00;62.94
63009;BME280;49099;28.428;-16.488;2023-07-31T07:35:19;99018.88;;;24.07;62.72
63009;BME280;49099;28.428;-16.488;2023-07-31T07:37:48;99023.16;;;24.08;63.46
63009;BME280;49099;28.428;-16.488;2023-07-31T07:40:19;99026.78;;;24.12;63.97
63009;BME280;49099;28.428;-16.488;2023-07-31T07:42:46;99025.75;;;24.17;64.09
63009;BME280;49099;28.428;-16.488;2023-07-31T07:45:14;99028.13;;;24.18;64.24
63009;BME280;49099;28.428;-16.488;2023-07-31T07:47:41;99027.91;;;24.24;63.67
63009;BME280;49099;28.428;-16.488;2023-07-31T07:50:09;99029.13;;;24.26;63.91
63009;BME280;49099;28.428;-16.488;2023-07-31T07:52:37;99031.75;;;24.23;64.29
63009;BME280;49099;28.428;-16.488;2023-07-31T07:55:04;99037.38;;;24.17;64.49
63009;BME280;49099;28.428;-16.488;2023-07-31T07:57:32;99034.22;;;24.15;64.80
63009;BME280;49099;28.428;-16.488;2023-07-31T07:59:59;99037.81;;;24.19;64.43
63009;BME280;49099;28.428;-16.488;2023-07-31T08:02:26;99038.97;;;24.18;64.49
63009;BME280;49099;28.428;-16.488;2023-07-31T08:04:53;99042.13;;;24.21;65.26
63009;BME280;49099;28.428;-16.488;2023-07-31T08:07:20;99041.66;;;24.31;64.81
63009;BME280;49099;28.428;-16.488;2023-07-31T08:09:47;99039.75;;;24.43;64.22
63009;BME280;49099;28.428;-16.488;2023-07-31T08:12:14;99037.50;;;24.45;64.78
63009;BME280;49099;28.428;-16.488;2023-07-31T08:14:41;99036.00;;;24.48;64.47
63009;BME280;49099;28.428;-16.488;2023-07-31T08:17:08;99042.44;;;24.56;64.42
63009;BME280;49099;28.428;-16.488;2023-07-31T08:19:36;99038.69;;;24.60;64.23
63009;BME280;49099;28.428;-16.488;2023-07-31T08:22:03;99029.63;;;24.68;64.21
63009;BME280;49099;28.428;-16.488;2023-07-31T08:24:31;99041.38;;;24.72;64.31
63009;BME280;49099;28.428;-16.488;2023-07-31T08:26:58;99035.28;;;24.76;64.60
63009;BME280;49099;28.428;-16.488;2023-07-31T08:29:25;99036.72;;;24.73;64.34
63009;BME280;49099;28.428;-16.488;2023-07-31T08:31:53;99031.88;;;24.66;64.00
63009;BME280;49099;28.428;-16.488;2023-07-31T08:34:20;99046.00;;;24.72;64.31
63009;BME280;49099;28.428;-16.488;2023-07-31T08:36:47;99041.69;;;24.83;63.71
63009;BME280;49099;28.428;-16.488;2023-07-31T08:39:14;99040.69;;;24.76;64.11
63009;BME280;49099;28.428;-16.488;2023-07-31T08:41:41;99046.22;;;24.79;63.49
63009;BME280;49099;28.428;-16.488;2023-07-31T08:44:10;99043.34;;;24.88;63.18
63009;BME280;49099;28.428;-16.488;2023-07-31T08:46:37;99041.78;;;24.87;64.44
63009;BME280;49099;28.428;-16.488;2023-07-31T08:49:05;99043.16;;;24.81;66.29
63009;BME280;49099;28.428;-16.488;2023-07-31T08:51:34;99042.72;;;24.79;65.48
63009;BME280;49099;28.428;-16.488;2023-07-31T08:54:02;99042.34;;;24.80;66.01
63009;BME280;49099;28.428;-16.488;2023-07-31T08:56:32;99045.41;;;24.79;64.82
63009;BME280;49099;28.428;-16.488;2023-07-31T08:59:02;99054.00;;;24.81;65.04
63009;BME280;49099;28.428;-16.488;2023-07-31T09:01:37;99050.34;;;24.89;65.51
63009;BME280;49099;28.428;-16.488;2023-07-31T09:04:09;99046.22;;;24.79;64.73
63009;BME280;49099;28.428;-16.488;2023-07-31T09:06:38;99053.13;;;24.77;64.74
63009;BME280;49099;28.428;-16.488;2023-07-31T09:09:06;99052.53;;;24.83;64.68
63009;BME280;49099;28.428;-16.488;2023-07-31T09:11:33;99049.47;;;24.85;63.50
63009;BME280;49099;28.428;-16.488;2023-07-31T09:14:00;99053.13;;;24.77;63.63
63009;BME280;49099;28.428;-16.488;2023-07-31T09:16:35;99053.34;;;24.71;63.34
63009;BME280;49099;28.428;-16.488;2023-07-31T09:19:02;99054.34;;;24.79;63.79
63009;BME280;49099;28.428;-16.488;2023-07-31T09:21:31;99059.69;;;24.76;64.97
63009;BME280;49099;28.428;-16.488;2023-07-31T09:23:58;99060.34;;;24.72;65.66
63009;BME280;49099;28.428;-16.488;2023-07-31T09:26:30;99062.94;;;24.81;66.12
63009;BME280;49099;28.428;-16.488;2023-07-31T09:29:01;99059.19;;;24.86;65.95
63009;BME280;49099;28.428;-16.488;2023-07-31T09:31:46;99055.00;;;24.88;65.83
63009;BME280;49099;28.428;-16.488;2023-07-31T09:34:14;99056.69;;;24.93;65.30
63009;BME280;49099;28.428;-16.488;2023-07-31T09:36:49;99052.69;;;25.02;64.81
63009;BME280;49099;28.428;-16.488;2023-07-31T09:39:17;99063.22;;;25.04;64.97
63009;BME280;49099;28.428;-16.488;2023-07-31T09:42:05;99064.78;;;25.05;64.96
63009;BME280;49099;28.428;-16.488;2023-07-31T09:44:39;99061.53;;;24.99;65.20
63009;BME280;49099;28.428;-16.488;2023-07-31T09:47:21;99059.25;;;25.01;65.30
63009;BME280;49099;28.428;-16.488;2023-07-31T09:49:52;99061.53;;;24.99;65.01
63009;BME280;49099;28.428;-16.488;2023-07-31T09:52:19;99061.41;;;24.96;66.17
63009;BME280;49099;28.428;-16.488;2023-07-31T09:54:46;99061.75;;;24.94;65.81
63009;BME280;49099;28.428;-16.488;2023-07-31T09:57:14;99062.97;;;24.97;65.46
63009;BME280;49099;28.428;-16.488;2023-07-31T09:59:46;99064.13;;;25.08;65.75
63009;BME280;49099;28.428;-16.488;2023-07-31T10:02:15;99067.47;;;25.17;64.66
63009;BME280;49099;28.428;-16.488;2023-07-31T10:04:45;99061.69;;;25.19;64.19
63009;BME280;49099;28.428;-16.488;2023-07-31T10:07:17;99062.22;;;25.24;64.20
63009;BME280;49099;28.428;-16.488;2023-07-31T10:09:45;99055.81;;;25.17;63.50
63009;BME280;49099;28.428;-16.488;2023-07-31T10:12:14;99061.69;;;25.19;63.48
63009;BME280;49099;28.428;-16.488;2023-07-31T10:14:44;99060.69;;;25.11;62.22
63009;BME280;49099;28.428;-16.488;2023-07-31T10:17:12;99059.72;;;25.04;62.43
63009;BME280;49099;28.428;-16.488;2023-07-31T10:19:40;99060.25;;;25.09;62.63
63009;BME280;49099;28.428;-16.488;2023-07-31T10:22:07;99071.19;;;25.13;63.67
63009;BME280;49099;28.428;-16.488;2023-07-31T10:24:39;99071.31;;;25.16;63.79
63009;BME280;49099;28.428;-16.488;2023-07-31T10:27:07;99072.66;;;25.22;62.99
63009;BME280;49099;28.428;-16.488;2023-07-31T10:29:35;99068.59;;;25.16;63.14
63009;BME280;49099;28.428;-16.488;2023-07-31T10:32:03;99073.97;;;25.28;63.22
63009;BME280;49099;28.428;-16.488;2023-07-31T10:34:34;99075.88;;;25.28;61.68
63009;BME280;49099;28.428;-16.488;2023-07-31T10:37:21;99073.63;;;25.30;63.11
63009;BME280;49099;28.428;-16.488;2023-07-31T10:39:59;99085.59;;;25.29;63.68
63009;BME280;49099;28.428;-16.488;2023-07-31T10:42:36;99080.84;;;25.38;63.07
63009;BME280;49099;28.428;-16.488;2023-07-31T10:45:08;99084.16;;;25.32;63.34
63009;BME280;49099;28.428;-16.488;2023-07-31T10:47:44;99089.38;;;25.24;64.03
63009;BME280;49099;28.428;-16.488;2023-07-31T10:50:21;99075.88;;;25.28;63.91
63009;BME280;49099;28.428;-16.488;2023-07-31T10:52:52;99077.22;;;25.34;63.28
63009;BME280;49099;28.428;-16.488;2023-07-31T10:55:32;99083.81;;;25.49;63.50
63009;BME280;49099;28.428;-16.488;2023-07-31T10:58:08;99086.09;;;25.47;62.27
63009;BME280;49099;28.428;-16.488;2023-07-31T11:00:40;99083.56;;;25.54;62.70
63009;BME280;49099;28.428;-16.488;2023-07-31T11:03:10;99076.22;;;25.54;62.67
63009;BME280;49099;28.428;-16.488;2023-07-31T11:08:15;99070.97;;;25.62;62.37
63009;BME280;49099;28.428;-16.488;2023-07-31T11:10:44;99067.91;;;25.63;61.30
63009;BME280;49099;28.428;-16.488;2023-07-31T11:13:12;99070.97;;;25.62;61.10
63009;BME280;49099;28.428;-16.488;2023-07-31T11:15:40;99073.94;;;25.56;61.03
63009;BME280;49099;28.428;-16.488;2023-07-31T11:18:07;99070.66;;;25.51;61.80
63009;BME280;49099;28.428;-16.488;2023-07-31T11:20:37;99067.78;;;25.44;61.72
63009;BME280;49099;28.428;-16.488;2023-07-31T11:23:07;99069.81;;;25.47;62.14
63009;BME280;49099;28.428;-16.488;2023-07-31T11:25:36;99067.34;;;25.58;61.76
63009;BME280;49099;28.428;-16.488;2023-07-31T11:28:14;99067.19;;;25.66;61.13
63009;BME280;49099;28.428;-16.488;2023-07-31T11:30:42;99063.72;;;25.81;61.38
63009;BME280;49099;28.428;-16.488;2023-07-31T11:33:12;99070.22;;;25.93;61.01
63009;BME280;49099;28.428;-16.488;2023-07-31T11:35:48;99072.81;;;26.05;61.35
63009;BME280;49099;28.428;-16.488;2023-07-31T11:38:26;99073.25;;;26.23;61.20
63009;BME280;49099;28.428;-16.488;2023-07-31T11:40:56;99079.97;;;26.29;60.07
63009;BME280;49099;28.428;-16.488;2023-07-31T11:43:23;99070.34;;;26.31;59.88
63009;BME280;49099;28.428;-16.488;2023-07-31T11:45:53;99068.91;;;26.37;59.85
63009;BME280;49099;28.428;-16.488;2023-07-31T11:48:22;99067.31;;;26.36;58.79
63009;BME280;49099;28.428;-16.488;2023-07-31T11:50:50;99064.38;;;26.26;59.16
63009;BME280;49099;28.428;-16.488;2023-07-31T11:53:27;99065.53;;;26.25;58.80
63009;BME280;49099;28.428;-16.488;2023-07-31T11:55:58;99069.88;;;26.29;59.37
63009;BME280;49099;28.428;-16.488;2023-07-31T11:58:26;99067.16;;;26.29;58.74
63009;BME280;49099;28.428;-16.488;2023-07-31T12:00:53;99073.06;;;26.31;59.26
63009;BME280;49099;28.428;-16.488;2023-07-31T12:03:21;99059.78;;;26.30;59.46
63009;BME280;49099;28.428;-16.488;2023-07-31T12:05:48;99069.88;;;26.29;58.68
63009;BME280;49099;28.428;-16.488;2023-07-31T12:08:15;99066.22;;;26.22;59.00
63009;BME280;49099;28.428;-16.488;2023-07-31T12:10:43;99068.03;;;26.33;59.35
63009;BME280;49099;28.428;-16.488;2023-07-31T12:13:12;99068.47;;;26.51;58.43
63009;BME280;49099;28.428;-16.488;2023-07-31T12:15:47;99067.09;;;26.61;58.22
63009;BME280;49099;28.428;-16.488;2023-07-31T12:18:19;99057.88;;;26.65;57.72
63009;BME280;49099;28.428;-16.488;2023-07-31T12:20:48;99059.31;;;26.59;57.92
63009;BME280;49099;28.428;-16.488;2023-07-31T12:23:30;99050.94;;;26.68;58.20
63009;BME280;49099;28.428;-16.488;2023-07-31T12:26:14;99051.09;;;26.75;58.00
63009;BME280;49099;28.428;-16.488;2023-07-31T12:28:45;99052.81;;;26.83;58.10
63009;BME280;49099;28.428;-16.488;2023-07-31T12:31:20;99050.25;;;26.71;57.75
63009;BME280;49099;28.428;-16.488;2023-07-31T12:33:49;99047.06;;;26.69;57.44
63009;BME280;49099;28.428;-16.488;2023-07-31T12:36:18;99046.66;;;26.67;58.33
63009;BME280;49099;28.428;-16.488;2023-07-31T12:38:47;99053.38;;;26.73;57.99
63009;BME280;49099;28.428;-16.488;2023-07-31T12:41:14;99036.63;;;26.71;58.07
63009;BME280;49099;28.428;-16.488;2023-07-31T12:43:43;99041.91;;;26.83;58.41
63009;BME280;49099;28.428;-16.488;2023-07-31T12:46:11;99043.22;;;26.89;58.70
63009;BME280;49099;28.428;-16.488;2023-07-31T12:48:39;99040.84;;;26.69;57.70
63009;BME280;49099;28.428;-16.488;2023-07-31T12:51:06;99041.19;;;26.67;58.57
63009;BME280;49099;28.428;-16.488;2023-07-31T12:53:36;99034.03;;;26.59;58.70
63009;BME280;49099;28.428;-16.488;2023-07-31T12:56:03;99041.69;;;26.53;58.96